sensor_id;sensor_type;location;lat;lon;timestamp;P1;durP1;ratioP1;P2;durP2;ratioP2
21733;SDS011;11029;47.820;10.534;2023-02-18T00:01:23;3.40;;;2.20;;
21733;SDS011;11029;47.820;10.534;2023-02-18T00:03:50;3.20;;;2.50;;
21733;SDS011;11029;47.820;10.534;2023-02-18T00:06:20;4.13;;;2.38;;
21733;SDS011;11029;47.820;10.534;2023-02-18T00:08:51;3.65;;;2.63;;
21733;SDS011;11029;47.820;10.534;2023-02-18T00:11:19;5.50;;;2.50;;
21733;SDS011;11029;47.820;10.534;2023-02-18T00:13:50;6.28;;;3.17;;
21733;SDS011;11029;47.820;10.534;2023-02-18T00:16:21;6.05;;;2.47;;
21733;SDS011;11029;47.820;10.534;2023-02-18T00:18:49;3.80;;;2.47;;
21733;SDS011;11029;47.820;10.534;2023-02-18T00:21:16;6.55;;;2.85;;
21733;SDS011;11029;47.820;10.534;2023-02-18T00:23:42;4.82;;;2.70;;
21733;SDS011;11029;47.820;10.534;2023-02-18T00:26:10;6.40;;;2.80;;
21733;SDS011;11029;47.820;10.534;2023-02-18T00:28:39;3.42;;;2.30;;
21733;SDS011;11029;47.820;10.534;2023-02-18T00:31:07;6.18;;;2.60;;
21733;SDS011;11029;47.820;10.534;2023-02-18T00:33:36;6.55;;;2.95;;
21733;SDS011;11029;47.820;10.534;2023-02-18T00:36:04;4.45;;;2.85;;
21733;SDS011;11029;47.820;10.534;2023-02-18T00:38:34;6.10;;;2.75;;
21733;SDS011;11029;47.820;10.534;2023-02-18T00:41:01;5.13;;;2.50;;
21733;SDS011;11029;47.820;10.534;2023-02-18T00:43:28;4.35;;;3.00;;
21733;SDS011;11029;47.820;10.534;2023-02-18T00:45:55;3.10;;;2.53;;
21733;SDS011;11029;47.820;10.534;2023-02-18T00:48:22;6.07;;;2.97;;
21733;SDS011;11029;47.820;10.534;2023-02-18T00:50:48;4.35;;;2.80;;
21733;SDS011;11029;47.820;10.534;2023-02-18T00:53:15;4.00;;;3.03;;
21733;SDS011;11029;47.820;10.534;2023-02-18T00:55:42;4.40;;;3.05;;
21733;SDS011;11029;47.820;10.534;2023-02-18T00:58:10;4.97;;;2.53;;
21733;SDS011;11029;47.820;10.534;2023-02-18T01:00:37;4.30;;;2.90;;
21733;SDS011;11029;47.820;10.534;2023-02-18T01:03:04;6.25;;;3.13;;
21733;SDS011;11029;47.820;10.534;2023-02-18T01:05:35;4.15;;;2.97;;
21733;SDS011;11029;47.820;10.534;2023-02-18T01:08:05;3.58;;;2.78;;
21733;SDS011;11029;47.820;10.534;2023-02-18T01:10:32;5.05;;;3.40;;
21733;SDS011;11029;47.820;10.534;2023-02-18T01:13:03;5.80;;;3.40;;
21733;SDS011;11029;47.820;10.534;2023-02-18T01:15:30;3.95;;;3.53;;
21733;SDS011;11029;47.820;10.534;2023-02-18T01:17:56;4.25;;;3.75;;
21733;SDS011;11029;47.820;10.534;2023-02-18T01:20:23;5.55;;;4.40;;
21733;SDS011;11029;47.820;10.534;2023-02-18T01:22:51;6.20;;;4.22;;
21733;SDS011;11029;47.820;10.534;2023-02-18T01:25:17;4.72;;;3.92;;
21733;SDS011;11029;47.820;10.534;2023-02-18T01:27:44;6.63;;;4.70;;
21733;SDS011;11029;47.820;10.534;2023-02-18T01:30:13;6.75;;;4.70;;
21733;SDS011;11029;47.820;10.534;2023-02-18T01:32:43;6.43;;;4.53;;
21733;SDS011;11029;47.820;10.534;2023-02-18T01:35:14;6.00;;;4.85;;
21733;SDS011;11029;47.820;10.534;2023-02-18T01:37:43;6.15;;;4.40;;
21733;SDS011;11029;47.820;10.534;2023-02-18T01:40:11;5.63;;;4.22;;
21733;SDS011;11029;47.820;10.534;2023-02-18T01:42:39;6.70;;;4.30;;
21733;SDS011;11029;47.820;10.534;2023-02-18T01:47:59;7.25;;;4.93;;
21733;SDS011;11029;47.820;10.534;2023-02-18T01:50:30;6.40;;;4.50;;
21733;SDS011;11029;47.820;10.534;2023-02-18T01:53:00;7.50;;;4.50;;
21733;SDS011;11029;47.820;10.534;2023-02-18T01:55:29;7.00;;;4.45;;
21733;SDS011;11029;47.820;10.534;2023-02-18T01:57:57;5.63;;;4.43;;
21733;SDS011;11029;47.820;10.534;2023-02-18T02:00:23;5.28;;;4.28;;
21733;SDS011;11029;47.820;10.534;2023-02-18T02:02:51;5.68;;;4.45;;
21733;SDS011;11029;47.820;10.534;2023-02-18T02:05:19;6.05;;;4.30;;
21733;SDS011;11029;47.820;10.534;2023-02-18T02:07:47;5.28;;;4.47;;
21733;SDS011;11029;47.820;10.534;2023-02-18T02:10:18;5.47;;;4.38;;
21733;SDS011;11029;47.820;10.534;2023-02-18T02:12:49;6.40;;;4.35;;
21733;SDS011;11029;47.820;10.534;2023-02-18T02:18:06;5.80;;;4.65;;
21733;SDS011;11029;47.820;10.534;2023-02-18T02:21:08;6.28;;;4.30;;
21733;SDS011;11029;47.820;10.534;2023-02-18T02:32:34;5.05;;;4.10;;
21733;SDS011;11029;47.820;10.534;2023-02-18T02:45:53;4.75;;;4.25;;
21733;SDS011;11029;47.820;10.534;2023-02-18T02:48:41;7.13;;;4.45;;
21733;SDS011;11029;47.820;10.534;2023-02-18T02:54:12;5.30;;;3.88;;
21733;SDS011;11029;47.820;10.534;2023-02-18T02:56:47;5.35;;;4.45;;
21733;SDS011;11029;47.820;10.534;2023-02-18T02:59:20;6.20;;;4.28;;
21733;SDS011;11029;47.820;10.534;2023-02-18T03:08:29;5.78;;;4.45;;
21733;SDS011;11029;47.820;10.534;2023-02-18T03:11:11;4.32;;;3.92;;
21733;SDS011;11029;47.820;10.534;2023-02-18T03:13:50;4.40;;;4.00;;
21733;SDS011;11029;47.820;10.534;2023-02-18T03:22:10;4.60;;;3.88;;
21733;SDS011;11029;47.820;10.534;2023-02-18T03:24:47;4.93;;;3.88;;
21733;SDS011;11029;47.820;10.534;2023-02-18T03:27:24;4.70;;;3.90;;
21733;SDS011;11029;47.820;10.534;2023-02-18T03:32:41;3.50;;;3.20;;
21733;SDS011;11029;47.820;10.534;2023-02-18T03:35:10;5.22;;;3.92;;
21733;SDS011;11029;47.820;10.534;2023-02-18T03:37:47;4.05;;;3.65;;
21733;SDS011;11029;47.820;10.534;2023-02-18T03:40:20;4.13;;;3.50;;
21733;SDS011;11029;47.820;10.534;2023-02-18T03:42:47;5.35;;;3.40;;
21733;SDS011;11029;47.820;10.534;2023-02-18T03:45:15;3.97;;;3.58;;
21733;SDS011;11029;47.820;10.534;2023-02-18T03:47:42;6.72;;;3.70;;
21733;SDS011;11029;47.820;10.534;2023-02-18T03:50:08;4.00;;;3.53;;
21733;SDS011;11029;47.820;10.534;2023-02-18T03:52:35;6.13;;;3.80;;
21733;SDS011;11029;47.820;10.534;2023-02-18T03:55:04;4.03;;;3.63;;
21733;SDS011;11029;47.820;10.534;2023-02-18T03:57:31;5.45;;;3.60;;
21733;SDS011;11029;47.820;10.534;2023-02-18T03:59:58;5.07;;;3.50;;
21733;SDS011;11029;47.820;10.534;2023-02-18T04:02:25;4.22;;;3.22;;
21733;SDS011;11029;47.820;10.534;2023-02-18T04:04:52;4.15;;;3.50;;
21733;SDS011;11029;47.820;10.534;2023-02-18T04:07:18;3.25;;;2.95;;
21733;SDS011;11029;47.820;10.534;2023-02-18T04:09:45;4.22;;;3.60;;
21733;SDS011;11029;47.820;10.534;2023-02-18T04:12:12;4.20;;;3.47;;
21733;SDS011;11029;47.820;10.534;2023-02-18T04:14:38;4.90;;;3.80;;
21733;SDS011;11029;47.820;10.534;2023-02-18T04:17:05;5.72;;;3.20;;
21733;SDS011;11029;47.820;10.534;2023-02-18T04:19:32;3.85;;;3.03;;
21733;SDS011;11029;47.820;10.534;2023-02-18T04:21:59;3.78;;;3.10;;
21733;SDS011;11029;47.820;10.534;2023-02-18T04:24:25;3.63;;;3.20;;
21733;SDS011;11029;47.820;10.534;2023-02-18T04:26:52;3.45;;;3.15;;
21733;SDS011;11029;47.820;10.534;2023-02-18T04:29:19;3.97;;;3.42;;
21733;SDS011;11029;47.820;10.534;2023-02-18T04:31:46;4.55;;;3.28;;
21733;SDS011;11029;47.820;10.534;2023-02-18T04:34:13;5.22;;;3.38;;
21733;SDS011;11029;47.820;10.534;2023-02-18T04:36:39;4.53;;;3.50;;
21733;SDS011;11029;47.820;10.534;2023-02-18T04:39:06;4.03;;;3.22;;
21733;SDS011;11029;47.820;10.534;2023-02-18T04:41:33;3.97;;;3.35;;
21733;SDS011;11029;47.820;10.534;2023-02-18T04:43:59;4.07;;;3.45;;
21733;SDS011;11029;47.820;10.534;2023-02-18T04:46:27;3.67;;;3.30;;
21733;SDS011;11029;47.820;10.534;2023-02-18T04:48:54;4.18;;;3.60;;
21733;SDS011;11029;47.820;10.534;2023-02-18T04:51:20;4.05;;;3.60;;
21733;SDS011;11029;47.820;10.534;2023-02-18T04:53:47;4.82;;;3.67;;
21733;SDS011;11029;47.820;10.534;2023-02-18T04:56:14;4.03;;;3.55;;
21733;SDS011;11029;47.820;10.534;2023-02-18T04:58:41;5.88;;;3.90;;
21733;SDS011;11029;47.820;10.534;2023-02-18T05:01:07;4.90;;;3.95;;
21733;SDS011;11029;47.820;10.534;2023-02-18T05:03:34;4.75;;;4.00;;
21733;SDS011;11029;47.820;10.534;2023-02-18T05:06:01;4.55;;;4.15;;
21733;SDS011;11029;47.820;10.534;2023-02-18T05:08:28;4.50;;;4.10;;
21733;SDS011;11029;47.820;10.534;2023-02-18T05:10:55;5.25;;;3.78;;
21733;SDS011;11029;47.820;10.534;2023-02-18T05:13:21;8.55;;;6.63;;
21733;SDS011;11029;47.820;10.534;2023-02-18T05:15:48;5.43;;;4.53;;
21733;SDS011;11029;47.820;10.534;2023-02-18T05:18:15;4.95;;;4.45;;
21733;SDS011;11029;47.820;10.534;2023-02-18T05:20:42;5.65;;;3.92;;
21733;SDS011;11029;47.820;10.534;2023-02-18T05:23:10;5.97;;;4.43;;
21733;SDS011;11029;47.820;10.534;2023-02-18T05:25:36;4.45;;;4.00;;
21733;SDS011;11029;47.820;10.534;2023-02-18T05:28:06;4.75;;;4.22;;
21733;SDS011;11029;47.820;10.534;2023-02-18T05:30:32;5.93;;;4.32;;
21733;SDS011;11029;47.820;10.534;2023-02-18T05:32:59;5.63;;;4.13;;
21733;SDS011;11029;47.820;10.534;2023-02-18T05:35:26;8.00;;;4.85;;
21733;SDS011;11029;47.820;10.534;2023-02-18T05:37:53;6.57;;;4.47;;
21733;SDS011;11029;47.820;10.534;2023-02-18T05:40:20;5.45;;;4.25;;
21733;SDS011;11029;47.820;10.534;2023-02-18T05:42:46;5.50;;;4.40;;
21733;SDS011;11029;47.820;10.534;2023-02-18T05:45:13;5.25;;;4.18;;
21733;SDS011;11029;47.820;10.534;2023-02-18T05:47:40;5.85;;;3.70;;
21733;SDS011;11029;47.820;10.534;2023-02-18T05:50:07;5.72;;;3.90;;
21733;SDS011;11029;47.820;10.534;2023-02-18T05:52:33;5.03;;;3.55;;
21733;SDS011;11029;47.820;10.534;2023-02-18T05:55:00;4.40;;;3.35;;
21733;SDS011;11029;47.820;10.534;2023-02-18T05:57:27;5.03;;;3.83;;
21733;SDS011;11029;47.820;10.534;2023-02-18T05:59:54;4.72;;;3.95;;
21733;SDS011;11029;47.820;10.534;2023-02-18T06:02:21;3.85;;;3.50;;
21733;SDS011;11029;47.820;10.534;2023-02-18T06:04:47;3.97;;;3.58;;
21733;SDS011;11029;47.820;10.534;2023-02-18T06:07:15;3.70;;;3.22;;
21733;SDS011;11029;47.820;10.534;2023-02-18T06:09:41;4.32;;;3.50;;
21733;SDS011;11029;47.820;10.534;2023-02-18T06:12:08;3.90;;;3.42;;
21733;SDS011;11029;47.820;10.534;2023-02-18T06:14:35;3.80;;;3.30;;
21733;SDS011;11029;47.820;10.534;2023-02-18T06:17:02;4.10;;;3.50;;
21733;SDS011;11029;47.820;10.534;2023-02-18T06:19:28;3.90;;;3.50;;
21733;SDS011;11029;47.820;10.534;2023-02-18T06:21:55;6.50;;;3.65;;
21733;SDS011;11029;47.820;10.534;2023-02-18T06:24:22;3.70;;;3.40;;
21733;SDS011;11029;47.820;10.534;2023-02-18T06:26:49;6.25;;;4.15;;
21733;SDS011;11029;47.820;10.534;2023-02-18T06:29:15;4.07;;;3.20;;
21733;SDS011;11029;47.820;10.534;2023-02-18T06:31:42;4.43;;;3.10;;
21733;SDS011;11029;47.820;10.534;2023-02-18T06:34:09;3.67;;;2.85;;
21733;SDS011;11029;47.820;10.534;2023-02-18T06:36:36;3.00;;;2.80;;
21733;SDS011;11029;47.820;10.534;2023-02-18T06:39:03;2.83;;;2.47;;
21733;SDS011;11029;47.820;10.534;2023-02-18T06:41:30;2.72;;;2.50;;
21733;SDS011;11029;47.820;10.534;2023-02-18T06:43:57;2.60;;;2.38;;
21733;SDS011;11029;47.820;10.534;2023-02-18T06:46:24;2.88;;;2.38;;
21733;SDS011;11029;47.820;10.534;2023-02-18T06:48:51;4.15;;;2.85;;
21733;SDS011;11029;47.820;10.534;2023-02-18T06:51:17;3.38;;;2.60;;
21733;SDS011;11029;47.820;10.534;2023-02-18T06:53:44;2.88;;;2.50;;
21733;SDS011;11029;47.820;10.534;2023-02-18T06:56:11;5.43;;;2.60;;
21733;SDS011;11029;47.820;10.534;2023-02-18T06:58:38;3.75;;;2.92;;
21733;SDS011;11029;47.820;10.534;2023-02-18T07:01:05;3.88;;;2.78;;
21733;SDS011;11029;47.820;10.534;2023-02-18T07:03:32;2.50;;;2.30;;
21733;SDS011;11029;47.820;10.534;2023-02-18T07:05:59;3.45;;;2.60;;
21733;SDS011;11029;47.820;10.534;2023-02-18T07:08:26;4.00;;;2.47;;
21733;SDS011;11029;47.820;10.534;2023-02-18T07:10:53;3.17;;;2.55;;
21733;SDS011;11029;47.820;10.534;2023-02-18T07:13:19;3.10;;;2.15;;
21733;SDS011;11029;47.820;10.534;2023-02-18T07:15:46;2.85;;;2.30;;
21733;SDS011;11029;47.820;10.534;2023-02-18T07:18:13;2.42;;;1.77;;
21733;SDS011;11029;47.820;10.534;2023-02-18T07:20:39;2.67;;;2.17;;
21733;SDS011;11029;47.820;10.534;2023-02-18T07:23:06;3.78;;;2.38;;
21733;SDS011;11029;47.820;10.534;2023-02-18T07:25:33;2.35;;;2.15;;
21733;SDS011;11029;47.820;10.534;2023-02-18T07:28:00;3.45;;;2.25;;
21733;SDS011;11029;47.820;10.534;2023-02-18T07:30:26;2.92;;;2.35;;
21733;SDS011;11029;47.820;10.534;2023-02-18T07:32:53;2.00;;;1.80;;
21733;SDS011;11029;47.820;10.534;2023-02-18T07:35:20;1.83;;;1.73;;
21733;SDS011;11029;47.820;10.534;2023-02-18T07:37:47;1.73;;;1.40;;
21733;SDS011;11029;47.820;10.534;2023-02-18T07:40:18;3.22;;;1.83;;
21733;SDS011;11029;47.820;10.534;2023-02-18T07:42:47;3.30;;;1.60;;
21733;SDS011;11029;47.820;10.534;2023-02-18T07:45:14;2.00;;;1.80;;
21733;SDS011;11029;47.820;10.534;2023-02-18T07:47:41;2.70;;;1.45;;
21733;SDS011;11029;47.820;10.534;2023-02-18T07:50:08;1.50;;;1.30;;
21733;SDS011;11029;47.820;10.534;2023-02-18T07:52:36;1.38;;;1.27;;
21733;SDS011;11029;47.820;10.534;2023-02-18T07:55:02;1.95;;;1.42;;
21733;SDS011;11029;47.820;10.534;2023-02-18T07:57:29;2.08;;;1.20;;
21733;SDS011;11029;47.820;10.534;2023-02-18T07:59:56;1.45;;;1.30;;
21733;SDS011;11029;47.820;10.534;2023-02-18T08:02:23;1.17;;;1.08;;
21733;SDS011;11029;47.820;10.534;2023-02-18T08:04:50;2.35;;;1.50;;
21733;SDS011;11029;47.820;10.534;2023-02-18T08:07:18;1.77;;;1.00;;
21733;SDS011;11029;47.820;10.534;2023-02-18T08:09:46;1.13;;;1.02;;
21733;SDS011;11029;47.820;10.534;2023-02-18T08:12:15;1.10;;;0.95;;
21733;SDS011;11029;47.820;10.534;2023-02-18T08:14:42;1.02;;;0.98;;
21733;SDS011;11029;47.820;10.534;2023-02-18T08:17:09;1.30;;;1.20;;
21733;SDS011;11029;47.820;10.534;2023-02-18T08:19:35;4.20;;;0.90;;
21733;SDS011;11029;47.820;10.534;2023-02-18T08:22:02;1.63;;;1.02;;
21733;SDS011;11029;47.820;10.534;2023-02-18T08:24:29;1.73;;;1.10;;
21733;SDS011;11029;47.820;10.534;2023-02-18T08:26:56;1.25;;;1.15;;
21733;SDS011;11029;47.820;10.534;2023-02-18T08:29:27;1.00;;;0.82;;
21733;SDS011;11029;47.820;10.534;2023-02-18T08:31:54;1.25;;;0.90;;
21733;SDS011;11029;47.820;10.534;2023-02-18T08:34:23;1.35;;;0.90;;
21733;SDS011;11029;47.820;10.534;2023-02-18T08:36:50;1.00;;;0.70;;
21733;SDS011;11029;47.820;10.534;2023-02-18T08:39:16;0.70;;;0.70;;
21733;SDS011;11029;47.820;10.534;2023-02-18T08:41:43;2.35;;;0.90;;
21733;SDS011;11029;47.820;10.534;2023-02-18T08:44:10;0.60;;;0.60;;
21733;SDS011;11029;47.820;10.534;2023-02-18T08:46:37;0.90;;;0.80;;
21733;SDS011;11029;47.820;10.534;2023-02-18T08:49:04;0.68;;;0.68;;
21733;SDS011;11029;47.820;10.534;2023-02-18T08:52:30;0.85;;;0.70;;
21733;SDS011;11029;47.820;10.534;2023-02-18T08:54:57;0.82;;;0.70;;
21733;SDS011;11029;47.820;10.534;2023-02-18T08:57:24;0.60;;;0.60;;
21733;SDS011;11029;47.820;10.534;2023-02-18T08:59:52;1.88;;;0.80;;
21733;SDS011;11029;47.820;10.534;2023-02-18T09:02:19;1.60;;;0.80;;
21733;SDS011;11029;47.820;10.534;2023-02-18T09:04:45;1.20;;;1.08;;
21733;SDS011;11029;47.820;10.534;2023-02-18T09:07:12;0.80;;;0.80;;
21733;SDS011;11029;47.820;10.534;2023-02-18T09:09:39;0.80;;;0.60;;
21733;SDS011;11029;47.820;10.534;2023-02-18T09:12:07;0.60;;;0.60;;
21733;SDS011;11029;47.820;10.534;2023-02-18T09:14:34;1.13;;;0.70;;
21733;SDS011;11029;47.820;10.534;2023-02-18T09:17:01;0.55;;;0.40;;
21733;SDS011;11029;47.820;10.534;2023-02-18T09:19:27;0.70;;;0.70;;
21733;SDS011;11029;47.820;10.534;2023-02-18T09:21:54;0.52;;;0.52;;
21733;SDS011;11029;47.820;10.534;2023-02-18T09:24:25;0.82;;;0.60;;
21733;SDS011;11029;47.820;10.534;2023-02-18T09:26:52;0.73;;;0.45;;
21733;SDS011;11029;47.820;10.534;2023-02-18T09:29:20;0.52;;;0.50;;
21733;SDS011;11029;47.820;10.534;2023-02-18T09:31:47;1.17;;;0.70;;
21733;SDS011;11029;47.820;10.534;2023-02-18T09:34:14;5.25;;;1.25;;
21733;SDS011;11029;47.820;10.534;2023-02-18T09:36:40;2.65;;;0.65;;
21733;SDS011;11029;47.820;10.534;2023-02-18T09:39:07;0.55;;;0.45;;
21733;SDS011;11029;47.820;10.534;2023-02-18T09:41:47;0.45;;;0.38;;
21733;SDS011;11029;47.820;10.534;2023-02-18T09:44:24;0.55;;;0.50;;
21733;SDS011;11029;47.820;10.534;2023-02-18T09:49:39;0.40;;;0.40;;
21733;SDS011;11029;47.820;10.534;2023-02-18T09:52:29;0.50;;;0.50;;
21733;SDS011;11029;47.820;10.534;2023-02-18T09:54:58;0.55;;;0.52;;
21733;SDS011;11029;47.820;10.534;2023-02-18T09:57:46;0.50;;;0.50;;
21733;SDS011;11029;47.820;10.534;2023-02-18T10:00:18;1.50;;;0.50;;
21733;SDS011;11029;47.820;10.534;2023-02-18T10:02:52;2.72;;;0.73;;
21733;SDS011;11029;47.820;10.534;2023-02-18T10:05:22;0.50;;;0.50;;
21733;SDS011;11029;47.820;10.534;2023-02-18T10:07:52;0.82;;;0.70;;
21733;SDS011;11029;47.820;10.534;2023-02-18T10:13:01;2.20;;;0.50;;
21733;SDS011;11029;47.820;10.534;2023-02-18T10:15:29;0.57;;;0.57;;
21733;SDS011;11029;47.820;10.534;2023-02-18T10:17:57;0.85;;;0.60;;
21733;SDS011;11029;47.820;10.534;2023-02-18T10:20:27;1.67;;;0.80;;
21733;SDS011;11029;47.820;10.534;2023-02-18T10:22:56;0.88;;;0.88;;
21733;SDS011;11029;47.820;10.534;2023-02-18T10:25:25;2.08;;;0.70;;
21733;SDS011;11029;47.820;10.534;2023-02-18T10:27:53;0.90;;;0.90;;
21733;SDS011;11029;47.820;10.534;2023-02-18T10:30:26;1.10;;;0.93;;
21733;SDS011;11029;47.820;10.534;2023-02-18T10:35:53;0.70;;;0.70;;
21733;SDS011;11029;47.820;10.534;2023-02-18T10:44:28;0.82;;;0.82;;
21733;SDS011;11029;47.820;10.534;2023-02-18T10:47:04;2.20;;;1.05;;
21733;SDS011;11029;47.820;10.534;2023-02-18T10:49:53;1.10;;;1.00;;
21733;SDS011;11029;47.820;10.534;2023-02-18T10:52:37;0.90;;;0.90;;
21733;SDS011;11029;47.820;10.534;2023-02-18T10:56:52;2.22;;;0.90;;
21733;SDS011;11029;47.820;10.534;2023-02-18T10:59:24;1.55;;;0.98;;
21733;SDS011;11029;47.820;10.534;2023-02-18T11:01:56;1.55;;;0.90;;
21733;SDS011;11029;47.820;10.534;2023-02-18T11:04:39;2.90;;;1.15;;
21733;SDS011;11029;47.820;10.534;2023-02-18T11:07:29;2.17;;;1.10;;
21733;SDS011;11029;47.820;10.534;2023-02-18T11:09:59;1.05;;;1.00;;
21733;SDS011;11029;47.820;10.534;2023-02-18T11:12:48;0.95;;;0.90;;
21733;SDS011;11029;47.820;10.534;2023-02-18T11:17:47;1.10;;;1.00;;
21733;SDS011;11029;47.820;10.534;2023-02-18T11:23:18;1.20;;;0.90;;
21733;SDS011;11029;47.820;10.534;2023-02-18T11:26:02;1.80;;;1.00;;
21733;SDS011;11029;47.820;10.534;2023-02-18T11:28:41;1.70;;;1.15;;
21733;SDS011;11029;47.820;10.534;2023-02-18T11:31:33;1.50;;;0.90;;
21733;SDS011;11029;47.820;10.534;2023-02-18T11:34:09;1.58;;;0.90;;
21733;SDS011;11029;47.820;10.534;2023-02-18T11:36:45;2.60;;;0.95;;
21733;SDS011;11029;47.820;10.534;2023-02-18T11:39:23;1.52;;;0.85;;
21733;SDS011;11029;47.820;10.534;2023-02-18T11:42:03;1.02;;;0.80;;
21733;SDS011;11029;47.820;10.534;2023-02-18T11:44:35;1.38;;;0.90;;
21733;SDS011;11029;47.820;10.534;2023-02-18T11:47:05;1.17;;;1.00;;
21733;SDS011;11029;47.820;10.534;2023-02-18T11:49:38;0.98;;;0.88;;
21733;SDS011;11029;47.820;10.534;2023-02-18T11:52:19;0.95;;;0.90;;
21733;SDS011;11029;47.820;10.534;2023-02-18T11:55:01;0.88;;;0.70;;
21733;SDS011;11029;47.820;10.534;2023-02-18T11:57:30;0.95;;;0.80;;
21733;SDS011;11029;47.820;10.534;2023-02-18T11:59:59;2.72;;;1.50;;
21733;SDS011;11029;47.820;10.534;2023-02-18T12:10:33;0.80;;;0.80;;
21733;SDS011;11029;47.820;10.534;2023-02-18T12:13:26;3.45;;;1.00;;
21733;SDS011;11029;47.820;10.534;2023-02-18T12:16:10;1.25;;;0.82;;
21733;SDS011;11029;47.820;10.534;2023-02-18T12:21:29;1.40;;;0.88;;
21733;SDS011;11029;47.820;10.534;2023-02-18T12:24:12;0.77;;;0.77;;
21733;SDS011;11029;47.820;10.534;2023-02-18T12:27:15;3.05;;;0.90;;
21733;SDS011;11029;47.820;10.534;2023-02-18T12:29:51;1.10;;;1.00;;
21733;SDS011;11029;47.820;10.534;2023-02-18T12:40:46;1.70;;;0.60;;
21733;SDS011;11029;47.820;10.534;2023-02-18T12:43:47;0.65;;;0.65;;
21733;SDS011;11029;47.820;10.534;2023-02-18T12:46:22;1.13;;;0.80;;
21733;SDS011;11029;47.820;10.534;2023-02-18T12:51:37;1.23;;;1.00;;
21733;SDS011;11029;47.820;10.534;2023-02-18T12:54:12;0.77;;;0.60;;
21733;SDS011;11029;47.820;10.534;2023-02-18T12:56:58;3.03;;;0.93;;
21733;SDS011;11029;47.820;10.534;2023-02-18T13:02:17;1.50;;;0.90;;
21733;SDS011;11029;47.820;10.534;2023-02-18T13:07:43;1.85;;;0.90;;
21733;SDS011;11029;47.820;10.534;2023-02-18T13:13:07;1.00;;;0.60;;
21733;SDS011;11029;47.820;10.534;2023-02-18T13:15:43;0.82;;;0.80;;
21733;SDS011;11029;47.820;10.534;2023-02-18T13:18:21;2.45;;;0.63;;
21733;SDS011;11029;47.820;10.534;2023-02-18T13:20:56;0.77;;;0.70;;
21733;SDS011;11029;47.820;10.534;2023-02-18T13:23:31;0.90;;;0.80;;
21733;SDS011;11029;47.820;10.534;2023-02-18T13:26:01;0.70;;;0.70;;
21733;SDS011;11029;47.820;10.534;2023-02-18T13:39:23;1.60;;;1.08;;
21733;SDS011;11029;47.820;10.534;2023-02-18T13:41:51;2.97;;;0.90;;
21733;SDS011;11029;47.820;10.534;2023-02-18T13:47:41;2.22;;;1.10;;
21733;SDS011;11029;47.820;10.534;2023-02-18T13:52:48;1.27;;;0.90;;
21733;SDS011;11029;47.820;10.534;2023-02-18T13:55:19;0.98;;;0.85;;
21733;SDS011;11029;47.820;10.534;2023-02-18T14:00:20;1.58;;;0.82;;
21733;SDS011;11029;47.820;10.534;2023-02-18T14:02:56;1.92;;;1.02;;
21733;SDS011;11029;47.820;10.534;2023-02-18T14:05:25;1.65;;;1.13;;
21733;SDS011;11029;47.820;10.534;2023-02-18T14:08:12;1.05;;;1.05;;
21733;SDS011;11029;47.820;10.534;2023-02-18T14:13:48;2.38;;;1.13;;
21733;SDS011;11029;47.820;10.534;2023-02-18T14:16:19;1.27;;;1.10;;
21733;SDS011;11029;47.820;10.534;2023-02-18T14:21:37;1.60;;;1.10;;
21733;SDS011;11029;47.820;10.534;2023-02-18T14:24:09;1.05;;;0.90;;
21733;SDS011;11029;47.820;10.534;2023-02-18T14:26:44;2.30;;;1.10;;
21733;SDS011;11029;47.820;10.534;2023-02-18T14:29:14;1.63;;;1.05;;
21733;SDS011;11029;47.820;10.534;2023-02-18T14:31:53;1.38;;;1.10;;
21733;SDS011;11029;47.820;10.534;2023-02-18T14:39:51;3.03;;;1.13;;
21733;SDS011;11029;47.820;10.534;2023-02-18T14:42:45;1.15;;;1.02;;
21733;SDS011;11029;47.820;10.534;2023-02-18T14:50:48;1.40;;;1.27;;
21733;SDS011;11029;47.820;10.534;2023-02-18T14:53:17;1.95;;;1.30;;
21733;SDS011;11029;47.820;10.534;2023-02-18T14:55:50;1.60;;;1.20;;
21733;SDS011;11029;47.820;10.534;2023-02-18T14:58:35;1.17;;;1.08;;
21733;SDS011;11029;47.820;10.534;2023-02-18T15:01:05;1.40;;;1.30;;
21733;SDS011;11029;47.820;10.534;2023-02-18T15:03:48;1.75;;;1.10;;
21733;SDS011;11029;47.820;10.534;2023-02-18T15:08:58;1.48;;;1.38;;
21733;SDS011;11029;47.820;10.534;2023-02-18T15:12:11;1.35;;;1.10;;
21733;SDS011;11029;47.820;10.534;2023-02-18T15:14:22;1.73;;;1.58;;
21733;SDS011;11029;47.820;10.534;2023-02-18T15:16:57;2.35;;;1.10;;
21733;SDS011;11029;47.820;10.534;2023-02-18T15:19:25;1.67;;;1.23;;
21733;SDS011;11029;47.820;10.534;2023-02-18T15:21:54;1.83;;;1.48;;
21733;SDS011;11029;47.820;10.534;2023-02-18T15:24:32;1.50;;;1.10;;
21733;SDS011;11029;47.820;10.534;2023-02-18T15:27:03;2.00;;;1.35;;
21733;SDS011;11029;47.820;10.534;2023-02-18T15:29:37;1.55;;;1.45;;
21733;SDS011;11029;47.820;10.534;2023-02-18T15:32:27;1.35;;;1.25;;
21733;SDS011;11029;47.820;10.534;2023-02-18T15:34:57;3.05;;;1.40;;
21733;SDS011;11029;47.820;10.534;2023-02-18T15:37:29;1.50;;;1.40;;
21733;SDS011;11029;47.820;10.534;2023-02-18T15:39:56;1.77;;;1.58;;
21733;SDS011;11029;47.820;10.534;2023-02-18T15:42:27;3.13;;;1.52;;
21733;SDS011;11029;47.820;10.534;2023-02-18T15:47:52;1.75;;;1.65;;
21733;SDS011;11029;47.820;10.534;2023-02-18T15:50:21;1.83;;;1.65;;
21733;SDS011;11029;47.820;10.534;2023-02-18T15:52:51;2.95;;;1.40;;
21733;SDS011;11029;47.820;10.534;2023-02-18T15:55:23;1.40;;;1.27;;
21733;SDS011;11029;47.820;10.534;2023-02-18T15:58:01;3.42;;;1.83;;
21733;SDS011;11029;47.820;10.534;2023-02-18T16:00:53;2.05;;;1.77;;
21733;SDS011;11029;47.820;10.534;2023-02-18T16:03:26;2.28;;;1.77;;
21733;SDS011;11029;47.820;10.534;2023-02-18T16:08:57;2.15;;;1.95;;
21733;SDS011;11029;47.820;10.534;2023-02-18T16:11:24;1.70;;;1.60;;
21733;SDS011;11029;47.820;10.534;2023-02-18T16:13:54;2.00;;;1.60;;
21733;SDS011;11029;47.820;10.534;2023-02-18T16:16:32;1.73;;;1.63;;
21733;SDS011;11029;47.820;10.534;2023-02-18T16:19:01;2.00;;;1.65;;
21733;SDS011;11029;47.820;10.534;2023-02-18T16:21:30;2.88;;;2.03;;
21733;SDS011;11029;47.820;10.534;2023-02-18T16:24:03;2.17;;;1.80;;
21733;SDS011;11029;47.820;10.534;2023-02-18T16:26:48;2.13;;;1.92;;
21733;SDS011;11029;47.820;10.534;2023-02-18T16:29:23;2.42;;;1.95;;
21733;SDS011;11029;47.820;10.534;2023-02-18T16:31:51;1.80;;;1.70;;
21733;SDS011;11029;47.820;10.534;2023-02-18T16:34:18;2.58;;;2.00;;
21733;SDS011;11029;47.820;10.534;2023-02-18T16:36:45;2.75;;;1.90;;
21733;SDS011;11029;47.820;10.534;2023-02-18T16:39:32;2.00;;;1.77;;
21733;SDS011;11029;47.820;10.534;2023-02-18T16:42:00;2.05;;;1.85;;
21733;SDS011;11029;47.820;10.534;2023-02-18T16:44:27;1.90;;;1.70;;
21733;SDS011;11029;47.820;10.534;2023-02-18T16:46:54;2.03;;;1.75;;
21733;SDS011;11029;47.820;10.534;2023-02-18T16:49:22;2.78;;;2.17;;
21733;SDS011;11029;47.820;10.534;2023-02-18T16:51:49;3.72;;;2.15;;
21733;SDS011;11029;47.820;10.534;2023-02-18T16:54:15;3.67;;;1.90;;
21733;SDS011;11029;47.820;10.534;2023-02-18T16:56:42;3.33;;;1.83;;
21733;SDS011;11029;47.820;10.534;2023-02-18T16:59:09;2.60;;;2.00;;
21733;SDS011;11029;47.820;10.534;2023-02-18T17:01:37;2.95;;;1.85;;
21733;SDS011;11029;47.820;10.534;2023-02-18T17:04:09;3.90;;;1.53;;
21733;SDS011;11029;47.820;10.534;2023-02-18T17:06:38;2.88;;;2.00;;
21733;SDS011;11029;47.820;10.534;2023-02-18T17:09:09;2.30;;;2.03;;
21733;SDS011;11029;47.820;10.534;2023-02-18T17:11:43;2.00;;;1.80;;
21733;SDS011;11029;47.820;10.534;2023-02-18T17:14:15;1.90;;;1.70;;